Terminal Aerodrome Forecast
Issued by NWS

Home | Current Version | Previous Version | Graphics & Text | Print | Product List | Glossary On
Versions: 1 2 3 4 5 6 7 8 9 10 11 12 13 14 15 16 17 18 19
000
FTUS43 KGRB 222338 CCB
TAFMTW
TAF COR
KMTW 222338Z 2300/2324 07011KT P6SM SKC
     FM230100 20005KT P6SM SKC
     FM231600 18010G17KT P6SM SCT250=

USA.gov is the U.S. government's official web portal to all federal, state and local government web resources and services.